sensor_id;sensor_type;location;lat;lon;timestamp;temperature;humidity
59651;DHT22;45954;49.768;8.636;2023-03-09T00:00:58;11.00;99.90
59651;DHT22;45954;49.768;8.636;2023-03-09T00:03:24;11.00;99.90
59651;DHT22;45954;49.768;8.636;2023-03-09T00:05:55;11.00;99.90
59651;DHT22;45954;49.768;8.636;2023-03-09T00:08:23;10.90;99.90
59651;DHT22;45954;49.768;8.636;2023-03-09T00:10:50;10.80;99.90
59651;DHT22;45954;49.768;8.636;2023-03-09T00:13:19;10.80;99.90
59651;DHT22;45954;49.768;8.636;2023-03-09T00:15:46;10.80;99.90
59651;DHT22;45954;49.768;8.636;2023-03-09T00:18:20;10.70;99.90
59651;DHT22;45954;49.768;8.636;2023-03-09T00:20:47;10.70;99.90
59651;DHT22;45954;49.768;8.636;2023-03-09T00:23:13;10.70;99.90
59651;DHT22;45954;49.768;8.636;2023-03-09T00:25:44;10.70;99.90
59651;DHT22;45954;49.768;8.636;2023-03-09T00:28:10;10.60;99.90
59651;DHT22;45954;49.768;8.636;2023-03-09T00:30:36;10.50;99.90
59651;DHT22;45954;49.768;8.636;2023-03-09T00:33:02;10.50;99.90
59651;DHT22;45954;49.768;8.636;2023-03-09T00:35:28;10.40;99.90
59651;DHT22;45954;49.768;8.636;2023-03-09T00:37:54;10.30;99.90
59651;DHT22;45954;49.768;8.636;2023-03-09T00:40:19;10.40;99.90
59651;DHT22;45954;49.768;8.636;2023-03-09T00:42:45;10.30;99.90
59651;DHT22;45954;49.768;8.636;2023-03-09T00:45:13;10.20;99.90
59651;DHT22;45954;49.768;8.636;2023-03-09T00:47:39;10.20;99.90
59651;DHT22;45954;49.768;8.636;2023-03-09T00:50:06;10.20;99.90
59651;DHT22;45954;49.768;8.636;2023-03-09T00:52:33;10.10;99.90
59651;DHT22;45954;49.768;8.636;2023-03-09T00:54:59;10.10;99.90
59651;DHT22;45954;49.768;8.636;2023-03-09T00:57:25;10.10;99.90
59651;DHT22;45954;49.768;8.636;2023-03-09T00:59:52;10.10;99.90
59651;DHT22;45954;49.768;8.636;2023-03-09T01:02:19;10.10;99.90
59651;DHT22;45954;49.768;8.636;2023-03-09T01:04:46;10.00;99.90
59651;DHT22;45954;49.768;8.636;2023-03-09T01:07:13;10.00;99.90
59651;DHT22;45954;49.768;8.636;2023-03-09T01:09:39;10.00;99.90
59651;DHT22;45954;49.768;8.636;2023-03-09T01:12:05;10.10;99.90
59651;DHT22;45954;49.768;8.636;2023-03-09T01:14:32;10.10;99.90
59651;DHT22;45954;49.768;8.636;2023-03-09T01:16:58;10.10;99.90
59651;DHT22;45954;49.768;8.636;2023-03-09T01:19:25;10.10;99.90
59651;DHT22;45954;49.768;8.636;2023-03-09T01:21:51;10.10;99.90
59651;DHT22;45954;49.768;8.636;2023-03-09T01:24:17;10.00;99.90
59651;DHT22;45954;49.768;8.636;2023-03-09T01:26:43;10.00;99.90
59651;DHT22;45954;49.768;8.636;2023-03-09T01:29:09;10.00;99.90
59651;DHT22;45954;49.768;8.636;2023-03-09T01:31:35;10.10;99.90
59651;DHT22;45954;49.768;8.636;2023-03-09T01:34:01;10.00;99.90
59651;DHT22;45954;49.768;8.636;2023-03-09T01:36:27;10.00;99.90
59651;DHT22;45954;49.768;8.636;2023-03-09T01:38:53;10.00;99.90
59651;DHT22;45954;49.768;8.636;2023-03-09T01:41:20;10.00;99.90
59651;DHT22;45954;49.768;8.636;2023-03-09T01:43:49;10.00;99.90
59651;DHT22;45954;49.768;8.636;2023-03-09T01:48:55;10.00;99.90
59651;DHT22;45954;49.768;8.636;2023-03-09T01:52:20;9.90;99.90
59651;DHT22;45954;49.768;8.636;2023-03-09T01:57:24;10.00;99.90
59651;DHT22;45954;49.768;8.636;2023-03-09T02:00:10;10.10;99.90
59651;DHT22;45954;49.768;8.636;2023-03-09T02:02:57;10.10;99.90
59651;DHT22;45954;49.768;8.636;2023-03-09T02:08:08;9.80;99.90
59651;DHT22;45954;49.768;8.636;2023-03-09T02:10:56;9.80;99.90
59651;DHT22;45954;49.768;8.636;2023-03-09T02:13:46;9.70;99.90
59651;DHT22;45954;49.768;8.636;2023-03-09T02:16:14;9.70;99.90
59651;DHT22;45954;49.768;8.636;2023-03-09T02:18:40;9.80;99.90
59651;DHT22;45954;49.768;8.636;2023-03-09T02:24:13;9.80;99.90
59651;DHT22;45954;49.768;8.636;2023-03-09T02:26:50;9.80;99.90
59651;DHT22;45954;49.768;8.636;2023-03-09T02:29:19;9.70;99.90
59651;DHT22;45954;49.768;8.636;2023-03-09T02:31:45;9.70;99.90
59651;DHT22;45954;49.768;8.636;2023-03-09T02:34:11;9.70;99.90
59651;DHT22;45954;49.768;8.636;2023-03-09T02:36:37;9.70;99.90
59651;DHT22;45954;49.768;8.636;2023-03-09T02:39:40;9.70;99.90
59651;DHT22;45954;49.768;8.636;2023-03-09T02:42:06;9.70;99.90
59651;DHT22;45954;49.768;8.636;2023-03-09T02:44:33;9.80;99.90
59651;DHT22;45954;49.768;8.636;2023-03-09T02:47:00;9.80;99.90
59651;DHT22;45954;49.768;8.636;2023-03-09T02:49:27;9.70;99.90
59651;DHT22;45954;49.768;8.636;2023-03-09T02:51:53;9.70;99.90
59651;DHT22;45954;49.768;8.636;2023-03-09T02:54:19;9.70;99.90
59651;DHT22;45954;49.768;8.636;2023-03-09T02:56:45;9.70;99.90
59651;DHT22;45954;49.768;8.636;2023-03-09T02:59:11;9.70;99.90
59651;DHT22;45954;49.768;8.636;2023-03-09T03:01:36;9.80;99.90
59651;DHT22;45954;49.768;8.636;2023-03-09T03:04:02;9.90;99.90
59651;DHT22;45954;49.768;8.636;2023-03-09T03:06:28;9.80;99.90
59651;DHT22;45954;49.768;8.636;2023-03-09T03:08:54;9.80;99.90
59651;DHT22;45954;49.768;8.636;2023-03-09T03:11:20;9.80;99.90
59651;DHT22;45954;49.768;8.636;2023-03-09T03:13:45;9.80;99.90
59651;DHT22;45954;49.768;8.636;2023-03-09T03:16:11;9.80;99.90
59651;DHT22;45954;49.768;8.636;2023-03-09T03:18:37;9.90;99.90
59651;DHT22;45954;49.768;8.636;2023-03-09T03:21:03;10.00;99.90
59651;DHT22;45954;49.768;8.636;2023-03-09T03:23:29;9.90;99.90
59651;DHT22;45954;49.768;8.636;2023-03-09T03:25:55;9.90;99.90
59651;DHT22;45954;49.768;8.636;2023-03-09T03:28:21;9.90;99.90
59651;DHT22;45954;49.768;8.636;2023-03-09T03:30:51;9.90;99.90
59651;DHT22;45954;49.768;8.636;2023-03-09T03:33:17;9.80;99.90
59651;DHT22;45954;49.768;8.636;2023-03-09T03:35:44;9.90;99.90
59651;DHT22;45954;49.768;8.636;2023-03-09T03:38:10;9.90;99.90
59651;DHT22;45954;49.768;8.636;2023-03-09T03:40:36;9.80;99.90
59651;DHT22;45954;49.768;8.636;2023-03-09T03:43:02;9.90;99.90
59651;DHT22;45954;49.768;8.636;2023-03-09T03:45:27;9.90;99.90
59651;DHT22;45954;49.768;8.636;2023-03-09T03:47:53;9.80;99.90
59651;DHT22;45954;49.768;8.636;2023-03-09T03:50:19;9.90;99.90
59651;DHT22;45954;49.768;8.636;2023-03-09T03:52:45;9.90;99.90
59651;DHT22;45954;49.768;8.636;2023-03-09T03:55:11;9.80;99.90
59651;DHT22;45954;49.768;8.636;2023-03-09T03:57:37;9.90;99.90
59651;DHT22;45954;49.768;8.636;2023-03-09T04:00:03;9.90;99.90
59651;DHT22;45954;49.768;8.636;2023-03-09T04:02:37;9.90;99.90
59651;DHT22;45954;49.768;8.636;2023-03-09T04:05:04;9.90;99.90
59651;DHT22;45954;49.768;8.636;2023-03-09T04:07:31;9.90;99.90
59651;DHT22;45954;49.768;8.636;2023-03-09T04:09:57;9.90;99.90
59651;DHT22;45954;49.768;8.636;2023-03-09T04:12:23;9.90;99.90
59651;DHT22;45954;49.768;8.636;2023-03-09T04:14:48;9.70;99.90
59651;DHT22;45954;49.768;8.636;2023-03-09T04:17:14;9.70;99.90
59651;DHT22;45954;49.768;8.636;2023-03-09T04:19:40;9.60;99.90
59651;DHT22;45954;49.768;8.636;2023-03-09T04:22:06;9.60;99.90
59651;DHT22;45954;49.768;8.636;2023-03-09T04:24:35;9.70;99.90
59651;DHT22;45954;49.768;8.636;2023-03-09T04:27:01;9.70;99.90
59651;DHT22;45954;49.768;8.636;2023-03-09T04:29:27;9.70;99.90
59651;DHT22;45954;49.768;8.636;2023-03-09T04:31:53;9.60;99.90
59651;DHT22;45954;49.768;8.636;2023-03-09T04:34:19;9.60;99.90
59651;DHT22;45954;49.768;8.636;2023-03-09T04:36:45;9.70;99.90
59651;DHT22;45954;49.768;8.636;2023-03-09T04:39:11;9.60;99.90
59651;DHT22;45954;49.768;8.636;2023-03-09T04:41:37;9.70;99.90
59651;DHT22;45954;49.768;8.636;2023-03-09T04:44:03;9.60;99.90
59651;DHT22;45954;49.768;8.636;2023-03-09T04:46:28;9.70;99.90
59651;DHT22;45954;49.768;8.636;2023-03-09T04:48:54;9.60;99.90
59651;DHT22;45954;49.768;8.636;2023-03-09T04:51:20;9.60;99.90
59651;DHT22;45954;49.768;8.636;2023-03-09T04:53:46;9.70;99.90
59651;DHT22;45954;49.768;8.636;2023-03-09T04:56:13;9.70;99.90
59651;DHT22;45954;49.768;8.636;2023-03-09T04:58:38;9.60;99.90
59651;DHT22;45954;49.768;8.636;2023-03-09T05:01:04;9.60;99.90
59651;DHT22;45954;49.768;8.636;2023-03-09T05:03:31;9.60;99.90
59651;DHT22;45954;49.768;8.636;2023-03-09T05:05:57;9.60;99.90
59651;DHT22;45954;49.768;8.636;2023-03-09T05:08:22;9.60;99.90
59651;DHT22;45954;49.768;8.636;2023-03-09T05:10:48;9.70;99.90
59651;DHT22;45954;49.768;8.636;2023-03-09T05:13:16;9.70;99.90
59651;DHT22;45954;49.768;8.636;2023-03-09T05:15:42;9.70;99.90
59651;DHT22;45954;49.768;8.636;2023-03-09T05:18:08;9.70;99.90
59651;DHT22;45954;49.768;8.636;2023-03-09T05:20:34;9.70;99.90
59651;DHT22;45954;49.768;8.636;2023-03-09T05:23:03;9.70;99.90
59651;DHT22;45954;49.768;8.636;2023-03-09T05:25:29;9.70;99.90
59651;DHT22;45954;49.768;8.636;2023-03-09T05:27:55;9.60;99.90
59651;DHT22;45954;49.768;8.636;2023-03-09T05:30:23;9.60;99.90
59651;DHT22;45954;49.768;8.636;2023-03-09T05:32:49;9.70;99.90
59651;DHT22;45954;49.768;8.636;2023-03-09T05:35:16;9.70;99.90
59651;DHT22;45954;49.768;8.636;2023-03-09T05:37:43;9.80;99.90
59651;DHT22;45954;49.768;8.636;2023-03-09T05:40:11;9.80;99.90
59651;DHT22;45954;49.768;8.636;2023-03-09T05:42:37;9.80;99.90
59651;DHT22;45954;49.768;8.636;2023-03-09T05:45:04;9.80;99.90
59651;DHT22;45954;49.768;8.636;2023-03-09T05:47:31;9.80;99.90
59651;DHT22;45954;49.768;8.636;2023-03-09T05:49:57;9.80;99.90
59651;DHT22;45954;49.768;8.636;2023-03-09T05:52:23;9.80;99.90
59651;DHT22;45954;49.768;8.636;2023-03-09T05:57:23;9.90;99.90
59651;DHT22;45954;49.768;8.636;2023-03-09T05:59:48;9.80;99.90
59651;DHT22;45954;49.768;8.636;2023-03-09T06:02:14;9.80;99.90
59651;DHT22;45954;49.768;8.636;2023-03-09T06:04:40;9.90;99.90
59651;DHT22;45954;49.768;8.636;2023-03-09T06:07:06;9.80;99.90
59651;DHT22;45954;49.768;8.636;2023-03-09T06:09:32;9.80;99.90
59651;DHT22;45954;49.768;8.636;2023-03-09T06:11:58;9.90;99.90
59651;DHT22;45954;49.768;8.636;2023-03-09T06:14:23;9.80;99.90
59651;DHT22;45954;49.768;8.636;2023-03-09T06:16:49;9.80;99.90
59651;DHT22;45954;49.768;8.636;2023-03-09T06:19:15;9.70;99.90
59651;DHT22;45954;49.768;8.636;2023-03-09T06:21:41;9.70;99.90
59651;DHT22;45954;49.768;8.636;2023-03-09T06:24:08;9.70;99.90
59651;DHT22;45954;49.768;8.636;2023-03-09T06:26:34;9.70;99.90
59651;DHT22;45954;49.768;8.636;2023-03-09T06:29:00;9.70;99.90
59651;DHT22;45954;49.768;8.636;2023-03-09T06:31:26;9.70;99.90
59651;DHT22;45954;49.768;8.636;2023-03-09T06:33:52;9.80;99.90
59651;DHT22;45954;49.768;8.636;2023-03-09T06:36:18;9.80;99.90
59651;DHT22;45954;49.768;8.636;2023-03-09T06:38:44;9.80;99.90
59651;DHT22;45954;49.768;8.636;2023-03-09T06:41:11;9.80;99.90
59651;DHT22;45954;49.768;8.636;2023-03-09T06:43:38;9.80;99.90
59651;DHT22;45954;49.768;8.636;2023-03-09T06:46:08;9.90;99.90
59651;DHT22;45954;49.768;8.636;2023-03-09T06:48:34;9.90;99.90
59651;DHT22;45954;49.768;8.636;2023-03-09T06:51:00;9.90;99.90
59651;DHT22;45954;49.768;8.636;2023-03-09T06:53:25;9.80;99.90
59651;DHT22;45954;49.768;8.636;2023-03-09T06:55:51;9.80;99.90
59651;DHT22;45954;49.768;8.636;2023-03-09T06:58:17;9.80;99.90
59651;DHT22;45954;49.768;8.636;2023-03-09T07:00:43;9.80;99.90
59651;DHT22;45954;49.768;8.636;2023-03-09T07:03:18;9.70;99.90
59651;DHT22;45954;49.768;8.636;2023-03-09T07:05:45;9.70;99.90
59651;DHT22;45954;49.768;8.636;2023-03-09T07:08:10;9.80;99.90
59651;DHT22;45954;49.768;8.636;2023-03-09T07:10:36;9.70;99.90
59651;DHT22;45954;49.768;8.636;2023-03-09T07:13:02;9.70;99.90
59651;DHT22;45954;49.768;8.636;2023-03-09T07:15:29;9.80;99.90
59651;DHT22;45954;49.768;8.636;2023-03-09T07:17:55;9.90;99.90
59651;DHT22;45954;49.768;8.636;2023-03-09T07:20:21;9.90;99.90
59651;DHT22;45954;49.768;8.636;2023-03-09T07:22:50;10.00;99.90
59651;DHT22;45954;49.768;8.636;2023-03-09T07:25:16;10.00;99.90
59651;DHT22;45954;49.768;8.636;2023-03-09T07:27:42;10.00;99.90
59651;DHT22;45954;49.768;8.636;2023-03-09T07:30:08;10.10;99.90
59651;DHT22;45954;49.768;8.636;2023-03-09T07:32:35;10.20;99.90
59651;DHT22;45954;49.768;8.636;2023-03-09T07:35:01;10.20;99.90
59651;DHT22;45954;49.768;8.636;2023-03-09T07:37:26;10.10;99.90
59651;DHT22;45954;49.768;8.636;2023-03-09T07:39:52;10.20;99.90
59651;DHT22;45954;49.768;8.636;2023-03-09T07:42:18;10.20;99.90
59651;DHT22;45954;49.768;8.636;2023-03-09T07:44:44;10.30;99.90
59651;DHT22;45954;49.768;8.636;2023-03-09T07:47:10;10.30;99.90
59651;DHT22;45954;49.768;8.636;2023-03-09T07:49:35;10.40;99.90
59651;DHT22;45954;49.768;8.636;2023-03-09T07:52:01;10.40;99.90
59651;DHT22;45954;49.768;8.636;2023-03-09T07:54:28;10.50;99.90
59651;DHT22;45954;49.768;8.636;2023-03-09T07:56:53;10.50;99.90
59651;DHT22;45954;49.768;8.636;2023-03-09T07:59:20;10.70;99.90
59651;DHT22;45954;49.768;8.636;2023-03-09T08:01:47;10.60;99.90
59651;DHT22;45954;49.768;8.636;2023-03-09T08:04:13;10.70;99.90
59651;DHT22;45954;49.768;8.636;2023-03-09T08:06:40;10.60;99.90
59651;DHT22;45954;49.768;8.636;2023-03-09T08:09:08;10.70;99.90
59651;DHT22;45954;49.768;8.636;2023-03-09T08:11:38;10.70;99.90
59651;DHT22;45954;49.768;8.636;2023-03-09T08:14:04;10.70;99.90
59651;DHT22;45954;49.768;8.636;2023-03-09T08:16:30;10.60;99.90
59651;DHT22;45954;49.768;8.636;2023-03-09T08:18:56;10.70;99.90
59651;DHT22;45954;49.768;8.636;2023-03-09T08:21:22;10.80;99.90
59651;DHT22;45954;49.768;8.636;2023-03-09T08:23:48;10.70;99.90
59651;DHT22;45954;49.768;8.636;2023-03-09T08:26:15;10.60;99.90
59651;DHT22;45954;49.768;8.636;2023-03-09T08:28:43;10.60;99.90
59651;DHT22;45954;49.768;8.636;2023-03-09T08:31:10;10.50;99.90
59651;DHT22;45954;49.768;8.636;2023-03-09T08:33:42;10.50;99.90
59651;DHT22;45954;49.768;8.636;2023-03-09T08:36:17;10.50;99.90
59651;DHT22;45954;49.768;8.636;2023-03-09T08:38:45;10.50;99.90
59651;DHT22;45954;49.768;8.636;2023-03-09T08:41:12;10.50;99.90
59651;DHT22;45954;49.768;8.636;2023-03-09T08:43:38;10.60;99.90
59651;DHT22;45954;49.768;8.636;2023-03-09T08:46:05;10.70;99.90
59651;DHT22;45954;49.768;8.636;2023-03-09T08:48:31;10.60;99.90
59651;DHT22;45954;49.768;8.636;2023-03-09T08:51:01;10.70;99.90
59651;DHT22;45954;49.768;8.636;2023-03-09T08:53:29;10.70;99.90
59651;DHT22;45954;49.768;8.636;2023-03-09T08:55:56;10.70;99.90
59651;DHT22;45954;49.768;8.636;2023-03-09T08:58:22;10.80;99.90
59651;DHT22;45954;49.768;8.636;2023-03-09T09:00:47;10.80;99.90
59651;DHT22;45954;49.768;8.636;2023-03-09T09:03:14;10.70;99.90
59651;DHT22;45954;49.768;8.636;2023-03-09T09:05:40;10.80;99.90
59651;DHT22;45954;49.768;8.636;2023-03-09T09:08:05;10.80;99.90
59651;DHT22;45954;49.768;8.636;2023-03-09T09:10:31;10.90;99.90
59651;DHT22;45954;49.768;8.636;2023-03-09T09:12:57;10.90;99.90
59651;DHT22;45954;49.768;8.636;2023-03-09T09:15:23;11.00;99.90
59651;DHT22;45954;49.768;8.636;2023-03-09T09:17:49;11.10;99.90
59651;DHT22;45954;49.768;8.636;2023-03-09T09:20:19;11.10;99.90
59651;DHT22;45954;49.768;8.636;2023-03-09T09:22:45;11.10;99.90
59651;DHT22;45954;49.768;8.636;2023-03-09T09:25:11;11.10;99.90
59651;DHT22;45954;49.768;8.636;2023-03-09T09:27:37;11.10;99.90
59651;DHT22;45954;49.768;8.636;2023-03-09T09:30:04;11.10;99.90
59651;DHT22;45954;49.768;8.636;2023-03-09T09:32:31;11.10;99.90
59651;DHT22;45954;49.768;8.636;2023-03-09T09:34:58;11.10;99.90
59651;DHT22;45954;49.768;8.636;2023-03-09T09:37:24;11.10;99.90
59651;DHT22;45954;49.768;8.636;2023-03-09T09:39:51;11.20;99.90
59651;DHT22;45954;49.768;8.636;2023-03-09T09:42:37;11.30;99.90
59651;DHT22;45954;49.768;8.636;2023-03-09T09:48:02;11.30;99.90
59651;DHT22;45954;49.768;8.636;2023-03-09T09:56:36;11.50;99.90
59651;DHT22;45954;49.768;8.636;2023-03-09T09:59:42;11.40;99.90
59651;DHT22;45954;49.768;8.636;2023-03-09T10:02:38;11.50;99.90
59651;DHT22;45954;49.768;8.636;2023-03-09T10:05:19;11.60;99.90
59651;DHT22;45954;49.768;8.636;2023-03-09T10:07:50;11.70;99.90
59651;DHT22;45954;49.768;8.636;2023-03-09T10:10:29;11.70;99.90
59651;DHT22;45954;49.768;8.636;2023-03-09T10:12:58;11.80;99.90
59651;DHT22;45954;49.768;8.636;2023-03-09T10:15:32;11.80;99.90
59651;DHT22;45954;49.768;8.636;2023-03-09T10:18:09;11.80;99.90
59651;DHT22;45954;49.768;8.636;2023-03-09T10:20:43;11.80;99.90
59651;DHT22;45954;49.768;8.636;2023-03-09T10:23:17;11.80;99.90
59651;DHT22;45954;49.768;8.636;2023-03-09T10:25:49;11.80;99.90
59651;DHT22;45954;49.768;8.636;2023-03-09T10:28:20;11.80;99.90
59651;DHT22;45954;49.768;8.636;2023-03-09T10:31:04;11.90;99.90
59651;DHT22;45954;49.768;8.636;2023-03-09T10:33:50;11.90;99.90
59651;DHT22;45954;49.768;8.636;2023-03-09T10:36:31;11.90;99.90
59651;DHT22;45954;49.768;8.636;2023-03-09T10:39:15;12.00;99.90
59651;DHT22;45954;49.768;8.636;2023-03-09T10:41:42;12.10;99.90
59651;DHT22;45954;49.768;8.636;2023-03-09T10:44:12;12.20;99.90
59651;DHT22;45954;49.768;8.636;2023-03-09T10:47:01;12.20;99.90
59651;DHT22;45954;49.768;8.636;2023-03-09T10:49:27;12.10;99.90
59651;DHT22;45954;49.768;8.636;2023-03-09T10:52:05;12.20;99.90
59651;DHT22;45954;49.768;8.636;2023-03-09T10:54:37;12.20;99.90
59651;DHT22;45954;49.768;8.636;2023-03-09T10:57:21;12.20;99.90
59651;DHT22;45954;49.768;8.636;2023-03-09T11:00:17;12.20;99.90
59651;DHT22;45954;49.768;8.636;2023-03-09T11:02:52;12.20;99.90
59651;DHT22;45954;49.768;8.636;2023-03-09T11:05:28;12.20;99.90
59651;DHT22;45954;49.768;8.636;2023-03-09T11:07:58;12.30;99.90
59651;DHT22;45954;49.768;8.636;2023-03-09T11:10:33;12.20;99.90
59651;DHT22;45954;49.768;8.636;2023-03-09T11:13:01;12.10;99.90
59651;DHT22;45954;49.768;8.636;2023-03-09T11:15:31;12.00;99.90
59651;DHT22;45954;49.768;8.636;2023-03-09T11:18:00;12.00;99.90
59651;DHT22;45954;49.768;8.636;2023-03-09T11:25:59;12.00;99.90
59651;DHT22;45954;49.768;8.636;2023-03-09T11:31:38;12.20;99.90
59651;DHT22;45954;49.768;8.636;2023-03-09T11:34:33;12.20;99.90
59651;DHT22;45954;49.768;8.636;2023-03-09T11:37:15;12.20;99.90
59651;DHT22;45954;49.768;8.636;2023-03-09T11:40:04;12.20;99.90
59651;DHT22;45954;49.768;8.636;2023-03-09T11:45:29;12.20;99.90
59651;DHT22;45954;49.768;8.636;2023-03-09T11:48:00;12.10;99.90
59651;DHT22;45954;49.768;8.636;2023-03-09T11:50:41;12.10;99.90
59651;DHT22;45954;49.768;8.636;2023-03-09T11:53:35;12.20;99.90
59651;DHT22;45954;49.768;8.636;2023-03-09T11:59:22;12.20;99.90
59651;DHT22;45954;49.768;8.636;2023-03-09T12:02:07;12.30;99.90
59651;DHT22;45954;49.768;8.636;2023-03-09T12:04:39;12.20;99.90
59651;DHT22;45954;49.768;8.636;2023-03-09T12:07:31;12.30;99.90
59651;DHT22;45954;49.768;8.636;2023-03-09T12:10:20;12.40;99.90
59651;DHT22;45954;49.768;8.636;2023-03-09T12:15:58;12.90;99.90
59651;DHT22;45954;49.768;8.636;2023-03-09T12:18:54;13.20;99.90
59651;DHT22;45954;49.768;8.636;2023-03-09T12:21:35;13.40;99.90
59651;DHT22;45954;49.768;8.636;2023-03-09T12:32:58;14.20;99.90
59651;DHT22;45954;49.768;8.636;2023-03-09T12:38:04;14.10;99.90
59651;DHT22;45954;49.768;8.636;2023-03-09T12:40:39;14.00;99.90
59651;DHT22;45954;49.768;8.636;2023-03-09T12:45:46;14.10;99.90
59651;DHT22;45954;49.768;8.636;2023-03-09T12:48:28;14.30;99.90
59651;DHT22;45954;49.768;8.636;2023-03-09T12:51:14;14.30;99.90
59651;DHT22;45954;49.768;8.636;2023-03-09T12:54:18;14.10;99.90
59651;DHT22;45954;49.768;8.636;2023-03-09T12:56:46;14.00;99.90
59651;DHT22;45954;49.768;8.636;2023-03-09T12:59:19;14.20;99.90
59651;DHT22;45954;49.768;8.636;2023-03-09T13:01:52;14.20;99.90
59651;DHT22;45954;49.768;8.636;2023-03-09T13:04:22;14.20;99.90
59651;DHT22;45954;49.768;8.636;2023-03-09T13:06:59;14.20;99.90
59651;DHT22;45954;49.768;8.636;2023-03-09T13:09:38;14.00;99.90
59651;DHT22;45954;49.768;8.636;2023-03-09T13:12:29;13.90;99.90
59651;DHT22;45954;49.768;8.636;2023-03-09T13:15:26;14.20;99.90
59651;DHT22;45954;49.768;8.636;2023-03-09T13:18:24;14.50;99.90
59651;DHT22;45954;49.768;8.636;2023-03-09T13:20:52;14.90;99.90
59651;DHT22;45954;49.768;8.636;2023-03-09T13:23:21;14.80;99.90
59651;DHT22;45954;49.768;8.636;2023-03-09T13:25:53;14.80;99.90
59651;DHT22;45954;49.768;8.636;2023-03-09T13:28:37;14.50;99.90
59651;DHT22;45954;49.768;8.636;2023-03-09T13:31:08;14.80;99.90
59651;DHT22;45954;49.768;8.636;2023-03-09T13:33:46;14.80;99.90
59651;DHT22;45954;49.768;8.636;2023-03-09T13:36:23;14.60;99.90
59651;DHT22;45954;49.768;8.636;2023-03-09T13:38:56;14.70;99.90
59651;DHT22;45954;49.768;8.636;2023-03-09T13:41:29;14.80;99.90
59651;DHT22;45954;49.768;8.636;2023-03-09T13:43:56;14.80;99.90
59651;DHT22;45954;49.768;8.636;2023-03-09T13:46:35;14.90;99.90
59651;DHT22;45954;49.768;8.636;2023-03-09T13:49:05;15.10;99.90
59651;DHT22;45954;49.768;8.636;2023-03-09T13:51:40;14.70;99.90
59651;DHT22;45954;49.768;8.636;2023-03-09T13:54:37;14.60;99.90
59651;DHT22;45954;49.768;8.636;2023-03-09T13:57:20;14.40;99.90
59651;DHT22;45954;49.768;8.636;2023-03-09T14:02:48;14.60;99.90
59651;DHT22;45954;49.768;8.636;2023-03-09T14:07:50;14.10;99.90
59651;DHT22;45954;49.768;8.636;2023-03-09T14:10:25;14.10;99.90
59651;DHT22;45954;49.768;8.636;2023-03-09T14:13:18;13.80;99.90
59651;DHT22;45954;49.768;8.636;2023-03-09T14:16:05;13.70;99.90
59651;DHT22;45954;49.768;8.636;2023-03-09T14:18:48;13.80;99.90
59651;DHT22;45954;49.768;8.636;2023-03-09T14:21:21;13.90;99.90
59651;DHT22;45954;49.768;8.636;2023-03-09T14:23:53;14.60;99.90
59651;DHT22;45954;49.768;8.636;2023-03-09T14:26:30;14.80;99.90
59651;DHT22;45954;49.768;8.636;2023-03-09T14:31:40;15.10;99.90
59651;DHT22;45954;49.768;8.636;2023-03-09T14:34:25;15.60;99.90
59651;DHT22;45954;49.768;8.636;2023-03-09T14:36:56;15.50;99.90
59651;DHT22;45954;49.768;8.636;2023-03-09T14:39:31;15.20;99.90
59651;DHT22;45954;49.768;8.636;2023-03-09T14:44:34;14.50;99.90
59651;DHT22;45954;49.768;8.636;2023-03-09T14:47:02;14.50;99.90
59651;DHT22;45954;49.768;8.636;2023-03-09T14:49:32;14.60;99.90
59651;DHT22;45954;49.768;8.636;2023-03-09T14:51:58;14.30;99.90
59651;DHT22;45954;49.768;8.636;2023-03-09T14:54:24;14.20;99.90
59651;DHT22;45954;49.768;8.636;2023-03-09T14:56:50;14.20;99.90
59651;DHT22;45954;49.768;8.636;2023-03-09T14:59:18;14.10;99.90
59651;DHT22;45954;49.768;8.636;2023-03-09T15:01:52;14.00;99.90
59651;DHT22;45954;49.768;8.636;2023-03-09T15:04:21;14.00;99.90
59651;DHT22;45954;49.768;8.636;2023-03-09T15:06:48;14.10;99.90
59651;DHT22;45954;49.768;8.636;2023-03-09T15:09:18;14.00;99.90
59651;DHT22;45954;49.768;8.636;2023-03-09T15:11:45;14.00;99.90
59651;DHT22;45954;49.768;8.636;2023-03-09T15:14:41;13.80;99.90
59651;DHT22;45954;49.768;8.636;2023-03-09T15:17:14;13.80;99.90
59651;DHT22;45954;49.768;8.636;2023-03-09T15:19:41;13.90;99.90
59651;DHT22;45954;49.768;8.636;2023-03-09T15:22:12;14.00;99.90
59651;DHT22;45954;49.768;8.636;2023-03-09T15:24:40;14.10;99.90
59651;DHT22;45954;49.768;8.636;2023-03-09T15:27:07;14.20;99.90
59651;DHT22;45954;49.768;8.636;2023-03-09T15:29:33;14.20;99.90
59651;DHT22;45954;49.768;8.636;2023-03-09T15:32:01;14.40;99.90
59651;DHT22;45954;49.768;8.636;2023-03-09T15:34:33;14.50;99.90
59651;DHT22;45954;49.768;8.636;2023-03-09T15:37:01;14.60;99.90
59651;DHT22;45954;49.768;8.636;2023-03-09T15:39:27;14.60;99.90
59651;DHT22;45954;49.768;8.636;2023-03-09T15:41:55;14.40;99.90
59651;DHT22;45954;49.768;8.636;2023-03-09T15:44:21;14.20;99.90
59651;DHT22;45954;49.768;8.636;2023-03-09T15:46:47;14.20;99.90
59651;DHT22;45954;49.768;8.636;2023-03-09T15:49:13;14.10;99.90
59651;DHT22;45954;49.768;8.636;2023-03-09T15:51:39;14.10;99.90
59651;DHT22;45954;49.768;8.636;2023-03-09T15:54:05;14.10;99.90
59651;DHT22;45954;49.768;8.636;2023-03-09T15:56:31;14.30;99.90
59651;DHT22;45954;49.768;8.636;2023-03-09T15:58:58;14.20;99.90
59651;DHT22;45954;49.768;8.636;2023-03-09T16:01:24;14.00;99.90
59651;DHT22;45954;49.768;8.636;2023-03-09T16:03:52;13.80;99.90
59651;DHT22;45954;49.768;8.636;2023-03-09T16:06:20;14.00;99.90
59651;DHT22;45954;49.768;8.636;2023-03-09T16:08:47;14.00;99.90
59651;DHT22;45954;49.768;8.636;2023-03-09T16:11:13;13.80;99.90
59651;DHT22;45954;49.768;8.636;2023-03-09T16:13:39;13.80;99.90
59651;DHT22;45954;49.768;8.636;2023-03-09T16:16:10;13.90;99.90
59651;DHT22;45954;49.768;8.636;2023-03-09T16:18:36;14.00;99.90
59651;DHT22;45954;49.768;8.636;2023-03-09T16:21:02;13.80;99.90
59651;DHT22;45954;49.768;8.636;2023-03-09T16:23:29;13.90;99.90
59651;DHT22;45954;49.768;8.636;2023-03-09T16:25:55;13.90;99.90
59651;DHT22;45954;49.768;8.636;2023-03-09T16:28:23;14.00;99.90
59651;DHT22;45954;49.768;8.636;2023-03-09T16:30:50;13.90;99.90
59651;DHT22;45954;49.768;8.636;2023-03-09T16:33:16;13.80;99.90
59651;DHT22;45954;49.768;8.636;2023-03-09T16:35:42;13.80;99.90
59651;DHT22;45954;49.768;8.636;2023-03-09T16:38:11;13.80;99.90
59651;DHT22;45954;49.768;8.636;2023-03-09T16:40:39;13.90;99.90
59651;DHT22;45954;49.768;8.636;2023-03-09T16:43:06;13.80;99.90
59651;DHT22;45954;49.768;8.636;2023-03-09T16:45:32;13.70;99.90
59651;DHT22;45954;49.768;8.636;2023-03-09T16:47:58;13.60;99.90
59651;DHT22;45954;49.768;8.636;2023-03-09T16:50:25;13.60;99.90
59651;DHT22;45954;49.768;8.636;2023-03-09T16:52:51;13.70;99.90
59651;DHT22;45954;49.768;8.636;2023-03-09T16:55:19;13.60;99.90
59651;DHT22;45954;49.768;8.636;2023-03-09T16:57:47;13.60;99.90